createdAt,value
2022-10-01T00:00:33.177Z,0.00
2022-10-01T00:01:33.444Z,0.00
2022-10-01T00:02:33.160Z,0.00
2022-10-01T00:03:33.135Z,0.00
2022-10-01T00:04:33.123Z,0.00
2022-10-01T00:05:33.150Z,0.00
2022-10-01T00:06:33.105Z,0.00
2022-10-01T00:07:33.089Z,0.00
2022-10-01T00:08:33.074Z,0.00
2022-10-01T00:09:33.103Z,0.00
2022-10-01T00:10:33.061Z,0.00
2022-10-01T00:11:33.258Z,0.00
2022-10-01T00:12:33.031Z,0.00
2022-10-01T00:13:33.024Z,0.00
2022-10-01T00:14:33.042Z,0.00
2022-10-01T00:15:33.005Z,0.00
2022-10-01T00:16:33.025Z,0.00
2022-10-01T00:17:32.987Z,0.00
2022-10-01T00:18:32.980Z,0.00
2022-10-01T00:19:32.977Z,0.00
2022-10-01T00:20:33.066Z,0.00
2022-10-01T00:21:33.243Z,0.00
2022-10-01T00:22:32.927Z,0.00
2022-10-01T00:23:32.917Z,0.00
2022-10-01T00:24:33.027Z,0.00
2022-10-01T00:25:32.896Z,0.00
2022-10-01T00:26:32.876Z,0.00
2022-10-01T00:27:32.877Z,0.00
2022-10-01T00:28:32.869Z,0.00
2022-10-01T00:29:32.848Z,0.00
2022-10-01T00:30:35.233Z,0.00
2022-10-01T00:31:33.318Z,0.00
2022-10-01T00:32:32.840Z,0.00
2022-10-01T00:33:32.822Z,0.00
2022-10-01T00:34:32.808Z,0.00
2022-10-01T00:35:32.791Z,0.00
2022-10-01T00:36:32.882Z,0.00
2022-10-01T00:37:32.759Z,0.00
2022-10-01T00:38:32.828Z,0.00
2022-10-01T00:39:32.740Z,0.00
2022-10-01T00:40:32.730Z,0.00
2022-10-01T00:41:33.215Z,0.00
2022-10-01T00:42:32.711Z,0.00
2022-10-01T00:43:32.691Z,0.00
2022-10-01T00:44:32.703Z,0.00
2022-10-01T00:45:32.722Z,0.00
2022-10-01T00:46:32.673Z,0.00
2022-10-01T00:47:32.685Z,0.00
2022-10-01T00:48:32.641Z,0.00
2022-10-01T00:49:32.633Z,0.00
2022-10-01T00:50:32.743Z,0.00
2022-10-01T00:51:33.033Z,0.00
2022-10-01T00:52:32.633Z,0.00
2022-10-01T00:53:32.594Z,0.00
2022-10-01T00:54:32.587Z,0.00
2022-10-01T00:55:35.342Z,0.00
2022-10-01T00:56:32.669Z,0.00
2022-10-01T00:57:32.653Z,0.00
2022-10-01T00:58:32.543Z,0.00
2022-10-01T00:59:32.524Z,0.00
2022-10-01T01:00:32.513Z,0.00
2022-10-01T01:01:32.852Z,0.00
2022-10-01T01:02:32.572Z,0.00
2022-10-01T01:03:32.483Z,0.00
2022-10-01T01:04:32.485Z,0.00
2022-10-01T01:05:32.462Z,0.00
2022-10-01T01:06:32.456Z,0.00
2022-10-01T01:07:32.465Z,0.00
2022-10-01T01:08:32.433Z,0.00
2022-10-01T01:09:32.415Z,0.00
2022-10-01T01:10:32.419Z,0.00
2022-10-01T01:11:32.692Z,0.00
2022-10-01T01:12:32.435Z,0.00
2022-10-01T01:13:32.377Z,0.00
2022-10-01T01:14:32.377Z,0.00
2022-10-01T01:15:32.404Z,0.00
2022-10-01T01:16:32.348Z,0.00
2022-10-01T01:17:32.368Z,0.00
2022-10-01T01:18:32.328Z,0.00
2022-10-01T01:19:32.317Z,0.00
2022-10-01T01:20:32.314Z,0.00
2022-10-01T01:21:32.707Z,0.00
2022-10-01T01:22:32.287Z,0.00
2022-10-01T01:23:32.293Z,0.00
2022-10-01T01:24:32.270Z,0.00
2022-10-01T01:25:32.251Z,0.00
2022-10-01T01:26:32.241Z,0.00
2022-10-01T01:27:32.231Z,0.00
2022-10-01T01:28:32.239Z,0.00
2022-10-01T01:29:32.201Z,0.00
2022-10-01T01:30:32.190Z,0.00
2022-10-01T01:31:32.683Z,0.00
2022-10-01T01:32:32.212Z,0.00
2022-10-01T01:33:32.162Z,0.00
2022-10-01T01:34:32.156Z,0.00
2022-10-01T01:35:32.149Z,0.00
2022-10-01T01:36:32.143Z,0.00
2022-10-01T01:37:32.151Z,0.00
2022-10-01T01:38:32.121Z,0.00
2022-10-01T01:39:32.091Z,0.00
2022-10-01T01:40:32.091Z,0.00
2022-10-01T01:41:32.394Z,0.00
2022-10-01T01:42:32.100Z,0.00
2022-10-01T01:43:32.084Z,0.00
2022-10-01T01:44:32.052Z,0.00
2022-10-01T01:45:32.041Z,0.00
2022-10-01T01:46:32.038Z,0.00
2022-10-01T01:47:32.073Z,0.00
2022-10-01T01:48:32.033Z,0.00
2022-10-01T01:49:32.063Z,0.00
2022-10-01T01:50:31.986Z,0.00
2022-10-01T01:51:32.350Z,0.00
2022-10-01T01:52:31.975Z,0.00
2022-10-01T01:53:31.968Z,0.00
2022-10-01T01:54:31.986Z,0.00
2022-10-01T01:55:31.927Z,0.00
2022-10-01T01:56:31.925Z,0.00
2022-10-01T01:57:31.908Z,0.00
2022-10-01T01:58:31.926Z,0.00
2022-10-01T01:59:31.887Z,0.00
2022-10-01T02:00:31.875Z,0.00
2022-10-01T02:01:32.282Z,0.00
2022-10-01T02:02:31.888Z,0.00
2022-10-01T02:03:31.864Z,0.00
2022-10-01T02:04:31.885Z,0.00
2022-10-01T02:05:31.827Z,0.00
2022-10-01T02:06:31.837Z,0.00
2022-10-01T02:07:31.799Z,0.00
2022-10-01T02:08:31.828Z,0.00
2022-10-01T02:09:31.780Z,0.00
2022-10-01T02:10:31.777Z,0.00
2022-10-01T02:11:32.141Z,0.00
2022-10-01T02:12:31.749Z,0.00
2022-10-01T02:13:31.741Z,0.00
2022-10-01T02:14:31.741Z,0.00
2022-10-01T02:15:31.709Z,0.00
2022-10-01T02:16:31.730Z,0.00
2022-10-01T02:17:31.690Z,0.00
2022-10-01T02:18:31.688Z,0.00
2022-10-01T02:19:31.710Z,0.00
2022-10-01T02:20:31.662Z,0.00
2022-10-01T02:21:32.161Z,0.00
2022-10-01T02:22:31.642Z,0.00
2022-10-01T02:23:31.650Z,0.00
2022-10-01T02:24:31.621Z,0.00
2022-10-01T02:25:31.613Z,0.00
2022-10-01T02:26:31.602Z,0.00
2022-10-01T02:27:31.629Z,0.00
2022-10-01T02:28:31.688Z,0.00
2022-10-01T02:29:31.562Z,0.00
2022-10-01T02:30:31.555Z,0.00
2022-10-01T02:31:31.788Z,0.00
2022-10-01T02:32:31.565Z,0.00
2022-10-01T02:33:31.522Z,0.00
2022-10-01T02:34:31.515Z,0.00
2022-10-01T02:35:31.505Z,0.00
2022-10-01T02:36:31.495Z,0.00
2022-10-01T02:37:31.495Z,0.00
2022-10-01T02:38:31.468Z,0.00
2022-10-01T02:39:31.459Z,0.00
2022-10-01T02:40:31.483Z,0.00
2022-10-01T02:41:31.791Z,0.00
2022-10-01T02:42:31.443Z,0.00
2022-10-01T02:43:31.426Z,0.00
2022-10-01T02:44:31.410Z,0.00
2022-10-01T02:45:31.477Z,0.00
2022-10-01T02:46:31.399Z,0.00
2022-10-01T02:47:31.423Z,0.00
2022-10-01T02:48:31.368Z,0.00
2022-10-01T02:49:31.358Z,0.00
2022-10-01T02:50:31.341Z,0.00
2022-10-01T02:51:31.630Z,0.00
2022-10-01T02:52:31.362Z,0.00
2022-10-01T02:53:31.307Z,0.00
2022-10-01T02:54:31.296Z,0.00
2022-10-01T02:55:31.299Z,0.00
2022-10-01T02:56:31.270Z,0.00
2022-10-01T02:57:31.278Z,0.00
2022-10-01T02:58:31.276Z,0.00
2022-10-01T02:59:31.249Z,0.00
2022-10-01T03:00:31.290Z,0.00
2022-10-01T03:01:31.561Z,0.00
2022-10-01T03:02:31.255Z,0.00
2022-10-01T03:03:31.222Z,0.00
2022-10-01T03:04:31.193Z,0.00
2022-10-01T03:05:31.180Z,0.00
2022-10-01T03:06:31.299Z,0.00
2022-10-01T03:07:31.204Z,0.00
2022-10-01T03:08:31.182Z,0.00
2022-10-01T03:09:31.141Z,0.00
2022-10-01T03:10:31.184Z,0.00
2022-10-01T03:11:31.402Z,0.00
2022-10-01T03:12:31.112Z,0.00
2022-10-01T03:13:31.132Z,0.00
2022-10-01T03:14:31.081Z,0.00
2022-10-01T03:15:31.073Z,0.00
2022-10-01T03:16:31.053Z,0.00
2022-10-01T03:17:31.070Z,0.00
2022-10-01T03:18:31.043Z,0.00
2022-10-01T03:19:31.061Z,0.00
2022-10-01T03:20:31.012Z,0.00
2022-10-01T03:21:31.426Z,0.00
2022-10-01T03:22:30.998Z,0.00
2022-10-01T03:23:30.992Z,0.00
2022-10-01T03:24:30.976Z,0.00
2022-10-01T03:25:30.985Z,0.00
2022-10-01T03:26:30.956Z,0.00
2022-10-01T03:27:30.954Z,0.00
2022-10-01T03:28:31.009Z,0.00
2022-10-01T03:29:30.936Z,0.00
2022-10-01T03:30:30.906Z,0.00
2022-10-01T03:31:31.308Z,0.00
2022-10-01T03:32:30.885Z,0.00
2022-10-01T03:33:30.886Z,0.00
2022-10-01T03:34:30.866Z,0.00
2022-10-01T03:35:30.857Z,0.00
2022-10-01T03:36:30.847Z,0.00
2022-10-01T03:37:30.867Z,0.00
2022-10-01T03:38:30.828Z,0.00
2022-10-01T03:39:30.817Z,0.00
2022-10-01T03:40:30.809Z,0.00
2022-10-01T03:41:30.997Z,0.00
2022-10-01T03:42:30.810Z,0.00
2022-10-01T03:43:30.779Z,0.00
2022-10-01T03:44:30.758Z,0.00
2022-10-01T03:45:30.775Z,0.00
2022-10-01T03:46:30.737Z,0.00
2022-10-01T03:47:30.769Z,0.00
2022-10-01T03:48:30.729Z,0.00
2022-10-01T03:49:30.711Z,0.00
2022-10-01T03:50:30.735Z,0.00
2022-10-01T03:51:30.693Z,0.00
2022-10-01T03:52:30.681Z,0.00
2022-10-01T03:53:30.681Z,0.00
2022-10-01T03:54:30.661Z,0.00
2022-10-01T03:55:30.653Z,0.00
2022-10-01T03:56:30.662Z,0.00
2022-10-01T03:57:30.631Z,0.00
2022-10-01T03:58:30.627Z,0.00
2022-10-01T03:59:30.606Z,0.00
2022-10-01T04:00:30.594Z,0.00
2022-10-01T04:01:30.674Z,0.00
2022-10-01T04:02:30.658Z,0.00
2022-10-01T04:03:30.562Z,0.00
2022-10-01T04:04:30.553Z,0.00
2022-10-01T04:05:30.544Z,0.00
2022-10-01T04:06:30.528Z,0.00
2022-10-01T04:07:30.644Z,0.00
2022-10-01T04:08:30.528Z,0.00
2022-10-01T04:09:30.505Z,0.00
2022-10-01T04:10:30.484Z,0.00
2022-10-01T04:11:30.741Z,0.00
2022-10-01T04:12:30.458Z,0.00
2022-10-01T04:13:30.456Z,0.00
2022-10-01T04:14:30.436Z,0.00
2022-10-01T04:15:30.425Z,0.00
2022-10-01T04:16:30.482Z,0.00
2022-10-01T04:17:30.407Z,0.00
2022-10-01T04:18:30.405Z,0.00
2022-10-01T04:19:30.395Z,0.00
2022-10-01T04:20:30.389Z,0.00
2022-10-01T04:21:30.548Z,0.00
2022-10-01T04:22:30.387Z,0.00
2022-10-01T04:23:30.351Z,0.00
2022-10-01T04:24:30.336Z,0.00
2022-10-01T04:25:30.323Z,0.00
2022-10-01T04:26:30.310Z,0.00
2022-10-01T04:27:30.330Z,0.00
2022-10-01T04:28:30.392Z,0.00
2022-10-01T04:29:30.299Z,0.00
2022-10-01T04:30:30.292Z,0.00
2022-10-01T04:31:30.290Z,0.00
2022-10-01T04:32:30.279Z,0.00
2022-10-01T04:33:30.240Z,0.00
2022-10-01T04:34:30.231Z,0.00
2022-10-01T04:35:30.258Z,0.00
2022-10-01T04:36:30.249Z,0.00
2022-10-01T04:37:30.186Z,0.00
2022-10-01T04:38:30.181Z,0.00
2022-10-01T04:39:30.161Z,0.00
2022-10-01T04:40:30.281Z,0.00
2022-10-01T04:41:30.153Z,0.00
2022-10-01T04:42:30.162Z,0.00
2022-10-01T04:43:30.120Z,0.00
2022-10-01T04:44:30.123Z,0.00
2022-10-01T04:45:30.116Z,0.00
2022-10-01T04:46:30.409Z,0.00
2022-10-01T04:47:30.764Z,0.00
2022-10-01T04:48:30.071Z,0.00
2022-10-01T04:49:30.091Z,0.00
2022-10-01T04:50:30.052Z,0.00
2022-10-01T04:51:30.042Z,0.00
2022-10-01T04:52:30.044Z,0.00
2022-10-01T04:53:30.033Z,0.00
2022-10-01T04:54:30.015Z,0.00
2022-10-01T04:55:30.025Z,0.00
2022-10-01T04:56:29.992Z,0.00
2022-10-01T04:57:29.975Z,0.00
2022-10-01T04:58:29.982Z,0.00
2022-10-01T04:59:29.965Z,0.00
2022-10-01T05:00:29.980Z,0.00
2022-10-01T05:01:30.009Z,0.00
2022-10-01T05:02:29.970Z,0.00
2022-10-01T05:03:29.917Z,0.00
2022-10-01T05:04:29.914Z,0.00
2022-10-01T05:05:29.895Z,0.00
2022-10-01T05:06:29.890Z,4.00
2022-10-01T05:07:29.907Z,4.00
2022-10-01T05:08:29.868Z,4.00
2022-10-01T05:09:29.848Z,4.00
2022-10-01T05:10:29.848Z,0.00
2022-10-01T05:11:29.835Z,0.00
2022-10-01T05:12:29.856Z,0.00
2022-10-01T05:13:29.810Z,0.00
2022-10-01T05:14:29.798Z,0.00
2022-10-01T05:15:29.787Z,4.00
2022-10-01T05:16:29.939Z,4.00
2022-10-01T05:17:29.774Z,4.00
2022-10-01T05:18:29.797Z,4.00
2022-10-01T05:19:29.739Z,4.00
2022-10-01T05:20:29.746Z,4.00
2022-10-01T05:21:29.736Z,4.00
2022-10-01T05:22:29.713Z,0.00
2022-10-01T05:23:29.701Z,0.00
2022-10-01T05:24:29.812Z,4.00
2022-10-01T05:25:29.681Z,4.00
2022-10-01T05:26:29.672Z,4.00
2022-10-01T05:27:29.660Z,4.00
2022-10-01T05:28:29.863Z,8.00
2022-10-01T05:29:29.676Z,8.00
2022-10-01T05:30:29.743Z,8.00
2022-10-01T05:31:29.822Z,8.00
2022-10-01T05:32:29.629Z,4.00
2022-10-01T05:33:29.593Z,4.00
2022-10-01T05:34:29.609Z,4.00
2022-10-01T05:35:29.602Z,8.00
2022-10-01T05:36:29.563Z,8.00
2022-10-01T05:37:29.564Z,8.00
2022-10-01T05:38:29.572Z,8.00
2022-10-01T05:39:29.537Z,12.00
2022-10-01T05:40:29.531Z,12.00
2022-10-01T05:41:29.512Z,16.00
2022-10-01T05:42:29.556Z,16.00
2022-10-01T05:43:29.524Z,12.00
2022-10-01T05:44:29.483Z,12.00
2022-10-01T05:45:29.500Z,12.00
2022-10-01T05:46:29.465Z,12.00
2022-10-01T05:47:29.444Z,12.00
2022-10-01T05:48:29.437Z,12.00
2022-10-01T05:49:29.475Z,12.00
2022-10-01T05:50:29.416Z,12.00
2022-10-01T05:51:29.401Z,12.00
2022-10-01T05:52:29.436Z,12.00
2022-10-01T05:53:29.385Z,16.00
2022-10-01T05:54:29.459Z,16.00
2022-10-01T05:55:29.356Z,16.00
2022-10-01T05:56:29.453Z,20.00
2022-10-01T05:57:29.759Z,20.00
2022-10-01T05:58:29.375Z,20.00
2022-10-01T05:59:31.901Z,24.00
2022-10-01T06:00:29.555Z,20.00
2022-10-01T06:01:29.290Z,20.00
2022-10-01T06:02:29.336Z,20.00
2022-10-01T06:03:29.321Z,20.00
2022-10-01T06:04:29.260Z,20.00
2022-10-01T06:05:29.249Z,20.00
2022-10-01T06:06:29.229Z,20.00
2022-10-01T06:07:29.260Z,24.00
2022-10-01T06:08:29.231Z,24.00
2022-10-01T06:09:29.230Z,20.00
2022-10-01T06:10:29.190Z,20.00
2022-10-01T06:11:29.179Z,20.00
2022-10-01T06:12:29.180Z,20.00
2022-10-01T06:13:29.184Z,20.00
2022-10-01T06:14:29.172Z,24.00
2022-10-01T06:15:29.152Z,24.00
2022-10-01T06:16:29.218Z,24.00
2022-10-01T06:17:29.131Z,24.00
2022-10-01T06:18:29.120Z,24.00
2022-10-01T06:19:29.114Z,28.00
2022-10-01T06:20:29.120Z,28.00
2022-10-01T06:21:29.165Z,28.00
2022-10-01T06:22:29.061Z,28.00
2022-10-01T06:23:29.059Z,28.00
2022-10-01T06:24:29.051Z,28.00
2022-10-01T06:25:29.162Z,28.00
2022-10-01T06:26:29.027Z,28.00
2022-10-01T06:27:29.012Z,28.00
2022-10-01T06:28:29.108Z,28.00
2022-10-01T06:29:28.995Z,32.00
2022-10-01T06:30:28.995Z,32.00
2022-10-01T06:31:29.050Z,32.00
2022-10-01T06:32:32.815Z,36.00
2022-10-01T06:33:29.993Z,32.00
2022-10-01T06:34:28.976Z,36.00
2022-10-01T06:35:29.023Z,40.00
2022-10-01T06:36:28.997Z,40.00
2022-10-01T06:37:28.956Z,36.00
2022-10-01T06:38:28.986Z,36.00
2022-10-01T06:39:28.960Z,36.00
2022-10-01T06:40:28.929Z,36.00
2022-10-01T06:41:28.879Z,32.00
2022-10-01T06:42:28.862Z,32.00
2022-10-01T06:43:28.879Z,36.00
2022-10-01T06:44:28.836Z,32.00
2022-10-01T06:45:28.894Z,32.00
2022-10-01T06:46:28.806Z,32.00
2022-10-01T06:47:28.852Z,28.00
2022-10-01T06:48:28.808Z,28.00
2022-10-01T06:49:28.782Z,28.00
2022-10-01T06:50:28.876Z,32.00
2022-10-01T06:51:28.750Z,32.00
2022-10-01T06:52:28.779Z,32.00
2022-10-01T06:53:28.740Z,32.00
2022-10-01T06:54:28.720Z,32.00
2022-10-01T06:55:28.722Z,32.00
2022-10-01T06:56:28.701Z,32.00
2022-10-01T06:57:28.703Z,32.00
2022-10-01T06:58:28.698Z,32.00
2022-10-01T06:59:28.672Z,32.00
2022-10-01T07:00:28.664Z,32.00
2022-10-01T07:01:28.694Z,32.00
2022-10-01T07:02:29.111Z,32.00
2022-10-01T07:03:28.672Z,32.00
2022-10-01T07:04:28.612Z,32.00
2022-10-01T07:05:28.601Z,28.00
2022-10-01T07:06:28.631Z,24.00
2022-10-01T07:07:30.103Z,24.00
2022-10-01T07:08:28.571Z,24.00
2022-10-01T07:09:28.552Z,28.00
2022-10-01T07:10:28.583Z,28.00
2022-10-01T07:11:28.540Z,28.00
2022-10-01T07:12:28.521Z,28.00
2022-10-01T07:13:28.514Z,28.00
2022-10-01T07:14:28.502Z,28.00
2022-10-01T07:15:28.496Z,32.00
2022-10-01T07:16:28.642Z,28.00
2022-10-01T07:17:28.474Z,28.00
2022-10-01T07:18:28.454Z,28.00
2022-10-01T07:19:28.451Z,28.00
2022-10-01T07:20:28.434Z,28.00
2022-10-01T07:21:28.457Z,28.00
2022-10-01T07:22:28.466Z,28.00
2022-10-01T07:23:28.415Z,28.00
2022-10-01T07:24:28.410Z,28.00
2022-10-01T07:25:28.386Z,32.00
2022-10-01T07:26:28.383Z,32.00
2022-10-01T07:27:28.367Z,32.00
2022-10-01T07:28:28.463Z,32.00
2022-10-01T07:29:28.360Z,32.00
2022-10-01T07:30:28.346Z,32.00
2022-10-01T07:31:28.390Z,36.00
2022-10-01T07:32:28.326Z,32.00
2022-10-01T07:33:28.307Z,36.00
2022-10-01T07:34:28.348Z,36.00
2022-10-01T07:35:28.289Z,36.00
2022-10-01T07:36:28.267Z,36.00
2022-10-01T07:37:28.268Z,40.00
2022-10-01T07:38:28.289Z,44.00
2022-10-01T07:39:28.379Z,44.00
2022-10-01T07:40:28.259Z,44.00
2022-10-01T07:41:28.220Z,48.00
2022-10-01T07:42:28.212Z,48.00
2022-10-01T07:43:28.199Z,44.00
2022-10-01T07:44:28.221Z,44.00
2022-10-01T07:45:28.225Z,40.00
2022-10-01T07:46:31.495Z,36.00
2022-10-01T07:47:29.161Z,36.00
2022-10-01T07:48:28.189Z,36.00
2022-10-01T07:49:28.141Z,36.00
2022-10-01T07:50:28.121Z,36.00
2022-10-01T07:51:28.121Z,36.00
2022-10-01T07:52:28.105Z,36.00
2022-10-01T07:53:28.123Z,36.00
2022-10-01T07:54:28.082Z,40.00
2022-10-01T07:55:28.082Z,32.00
2022-10-01T07:56:28.062Z,32.00
2022-10-01T07:57:28.053Z,36.00
2022-10-01T07:58:28.064Z,36.00
2022-10-01T07:59:28.146Z,36.00
2022-10-01T08:00:28.013Z,36.00
2022-10-01T08:01:28.085Z,40.00
2022-10-01T08:02:28.103Z,36.00
2022-10-01T08:03:28.011Z,32.00
2022-10-01T08:04:27.963Z,32.00
2022-10-01T08:05:27.964Z,32.00
2022-10-01T08:06:27.955Z,36.00
2022-10-01T08:07:27.946Z,36.00
2022-10-01T08:08:27.928Z,40.00
2022-10-01T08:09:27.976Z,40.00
2022-10-01T08:10:27.918Z,44.00
2022-10-01T08:11:27.926Z,48.00
2022-10-01T08:12:27.888Z,52.00
2022-10-01T08:13:27.887Z,52.00
2022-10-01T08:14:27.885Z,56.00
2022-10-01T08:15:27.857Z,56.00
2022-10-01T08:16:27.865Z,52.00
2022-10-01T08:17:29.587Z,52.00
2022-10-01T08:18:27.828Z,48.00
2022-10-01T08:19:27.819Z,48.00
2022-10-01T08:20:27.809Z,48.00
2022-10-01T08:21:27.798Z,48.00
2022-10-01T08:22:27.788Z,44.00
2022-10-01T08:23:27.821Z,48.00
2022-10-01T08:24:27.897Z,48.00
2022-10-01T08:25:27.758Z,48.00
2022-10-01T08:26:27.748Z,48.00
2022-10-01T08:27:27.729Z,44.00
2022-10-01T08:28:27.765Z,40.00
2022-10-01T08:29:27.819Z,44.00
2022-10-01T08:30:27.701Z,44.00
2022-10-01T08:31:27.706Z,44.00
2022-10-01T08:32:27.670Z,52.00
2022-10-01T08:33:27.659Z,52.00
2022-10-01T08:34:27.734Z,56.00
2022-10-01T08:35:27.660Z,56.00
2022-10-01T08:36:27.633Z,60.00
2022-10-01T08:37:27.624Z,60.00
2022-10-01T08:38:27.623Z,52.00
2022-10-01T08:39:27.600Z,60.00
2022-10-01T08:40:27.631Z,60.00
2022-10-01T08:41:27.583Z,56.00
2022-10-01T08:42:27.573Z,52.00
2022-10-01T08:43:27.555Z,52.00
2022-10-01T08:44:27.543Z,60.00
2022-10-01T08:45:27.631Z,64.00
2022-10-01T08:46:27.522Z,68.00
2022-10-01T08:47:27.517Z,68.00
2022-10-01T08:48:27.493Z,68.00
2022-10-01T08:49:27.484Z,68.00
2022-10-01T08:50:27.522Z,64.00
2022-10-01T08:51:27.481Z,64.00
2022-10-01T08:52:27.456Z,64.00
2022-10-01T08:53:27.444Z,60.00
2022-10-01T08:54:27.424Z,60.00
2022-10-01T08:55:27.463Z,60.00
2022-10-01T08:56:27.421Z,60.00
2022-10-01T08:57:27.406Z,64.00
2022-10-01T08:58:27.384Z,68.00
2022-10-01T08:59:27.607Z,68.00
2022-10-01T09:00:27.374Z,76.00
2022-10-01T09:01:27.461Z,72.00
2022-10-01T09:02:27.354Z,76.00
2022-10-01T09:03:27.380Z,80.00
2022-10-01T09:04:27.438Z,80.00
2022-10-01T09:05:27.347Z,80.00
2022-10-01T09:06:27.405Z,72.00
2022-10-01T09:07:27.287Z,84.00
2022-10-01T09:08:27.278Z,88.00
2022-10-01T09:09:27.266Z,80.00
2022-10-01T09:10:27.248Z,76.00
2022-10-01T09:11:27.256Z,80.00
2022-10-01T09:12:27.249Z,80.00
2022-10-01T09:13:27.230Z,80.00
2022-10-01T09:14:27.227Z,88.00
2022-10-01T09:15:27.234Z,92.00
2022-10-01T09:16:27.257Z,92.00
2022-10-01T09:17:27.199Z,92.00
2022-10-01T09:18:27.179Z,88.00
2022-10-01T09:19:27.171Z,92.00
2022-10-01T09:20:27.161Z,88.00
2022-10-01T09:21:27.208Z,96.00
2022-10-01T09:22:27.161Z,100.00
2022-10-01T09:23:27.132Z,104.00
2022-10-01T09:24:27.444Z,108.00
2022-10-01T09:25:27.147Z,108.00
2022-10-01T09:26:27.091Z,108.00
2022-10-01T09:27:27.090Z,108.00
2022-10-01T09:28:27.182Z,108.00
2022-10-01T09:29:27.063Z,104.00
2022-10-01T09:30:27.069Z,96.00
2022-10-01T09:31:27.134Z,96.00
2022-10-01T09:32:27.027Z,96.00
2022-10-01T09:33:27.014Z,104.00
2022-10-01T09:34:27.013Z,108.00
2022-10-01T09:35:27.024Z,116.00
2022-10-01T09:36:27.017Z,116.00
2022-10-01T09:37:26.982Z,112.00
2022-10-01T09:38:26.966Z,112.00
2022-10-01T09:39:26.956Z,108.00
2022-10-01T09:40:26.943Z,108.00
2022-10-01T09:41:26.981Z,100.00
2022-10-01T09:42:26.915Z,92.00
2022-10-01T09:43:26.915Z,88.00
2022-10-01T09:44:26.897Z,84.00
2022-10-01T09:45:27.011Z,84.00
2022-10-01T09:46:26.893Z,84.00
2022-10-01T09:47:26.888Z,84.00
2022-10-01T09:48:26.866Z,84.00
2022-10-01T09:49:26.835Z,88.00
2022-10-01T09:50:26.838Z,84.00
2022-10-01T09:51:26.838Z,88.00
2022-10-01T09:52:26.828Z,88.00
2022-10-01T09:53:26.808Z,92.00
2022-10-01T09:54:26.786Z,88.00
2022-10-01T09:55:26.799Z,88.00
2022-10-01T09:56:26.776Z,88.00
2022-10-01T09:57:26.879Z,96.00
2022-10-01T09:58:26.760Z,100.00
2022-10-01T09:59:26.778Z,100.00
2022-10-01T10:00:26.728Z,100.00
2022-10-01T10:01:26.709Z,104.00
2022-10-01T10:02:26.825Z,104.00
2022-10-01T10:03:26.768Z,112.00
2022-10-01T10:04:26.731Z,120.00
2022-10-01T10:05:26.679Z,124.00
2022-10-01T10:06:26.660Z,124.00
2022-10-01T10:07:26.650Z,124.00
2022-10-01T10:08:26.643Z,120.00
2022-10-01T10:09:26.749Z,112.00
2022-10-01T10:10:26.622Z,112.00
2022-10-01T10:11:26.601Z,112.00
2022-10-01T10:12:26.591Z,116.00
2022-10-01T10:13:26.597Z,116.00
2022-10-01T10:14:26.601Z,116.00
2022-10-01T10:15:26.562Z,112.00
2022-10-01T10:16:26.880Z,104.00
2022-10-01T10:17:26.552Z,96.00
2022-10-01T10:18:26.542Z,88.00
2022-10-01T10:19:26.644Z,80.00
2022-10-01T10:20:26.503Z,72.00
2022-10-01T10:21:26.495Z,80.00
2022-10-01T10:22:26.485Z,76.00
2022-10-01T10:23:26.528Z,72.00
2022-10-01T10:24:26.530Z,68.00
2022-10-01T10:25:26.455Z,48.00
2022-10-01T10:26:26.443Z,48.00
2022-10-01T10:27:26.435Z,52.00
2022-10-01T10:28:26.505Z,44.00
2022-10-01T10:29:26.446Z,56.00
2022-10-01T10:30:26.417Z,52.00
2022-10-01T10:31:26.432Z,56.00
2022-10-01T10:32:26.376Z,48.00
2022-10-01T10:33:26.404Z,56.00
2022-10-01T10:34:26.361Z,60.00
2022-10-01T10:35:26.478Z,56.00
2022-10-01T10:36:26.340Z,52.00
2022-10-01T10:37:26.327Z,48.00
2022-10-01T10:38:26.315Z,52.00
2022-10-01T10:39:26.316Z,52.00
2022-10-01T10:40:29.559Z,44.00
2022-10-01T10:41:26.314Z,52.00
2022-10-01T10:42:26.277Z,48.00
2022-10-01T10:43:26.282Z,44.00
2022-10-01T10:44:26.257Z,48.00
2022-10-01T10:45:26.241Z,52.00
2022-10-01T10:46:26.251Z,44.00
2022-10-01T10:47:26.221Z,44.00
2022-10-01T10:48:26.331Z,44.00
2022-10-01T10:49:26.209Z,44.00
2022-10-01T10:50:26.181Z,40.00
2022-10-01T10:51:26.198Z,44.00
2022-10-01T10:52:26.281Z,44.00
2022-10-01T10:53:26.181Z,44.00
2022-10-01T10:54:26.162Z,48.00
2022-10-01T10:55:26.130Z,48.00
2022-10-01T10:56:26.122Z,52.00
2022-10-01T10:57:26.127Z,56.00
2022-10-01T10:58:26.092Z,64.00
2022-10-01T10:59:26.104Z,68.00
2022-10-01T11:00:26.089Z,64.00
2022-10-01T11:01:26.188Z,68.00
2022-10-01T11:02:26.078Z,68.00
2022-10-01T11:03:26.056Z,76.00
2022-10-01T11:04:26.059Z,72.00
2022-10-01T11:05:26.032Z,72.00
2022-10-01T11:06:26.007Z,68.00
2022-10-01T11:07:25.994Z,68.00
2022-10-01T11:08:25.983Z,64.00
2022-10-01T11:09:26.003Z,68.00
2022-10-01T11:10:25.964Z,64.00
2022-10-01T11:11:25.968Z,64.00
2022-10-01T11:12:25.946Z,60.00
2022-10-01T11:13:25.936Z,60.00
2022-10-01T11:14:25.947Z,60.00
2022-10-01T11:15:25.917Z,60.00
2022-10-01T11:16:26.018Z,60.00
2022-10-01T11:17:25.898Z,60.00
2022-10-01T11:18:25.886Z,64.00
2022-10-01T11:19:25.898Z,60.00
2022-10-01T11:20:25.858Z,60.00
2022-10-01T11:21:25.856Z,60.00
2022-10-01T11:22:25.856Z,60.00
2022-10-01T11:23:25.849Z,52.00
2022-10-01T11:24:25.961Z,52.00
2022-10-01T11:25:25.809Z,48.00
2022-10-01T11:26:25.809Z,44.00
2022-10-01T11:27:25.779Z,44.00
2022-10-01T11:28:25.810Z,52.00
2022-10-01T11:29:25.766Z,48.00
2022-10-01T11:30:25.792Z,52.00
2022-10-01T11:31:25.780Z,48.00
2022-10-01T11:32:25.730Z,52.00
2022-10-01T11:33:25.721Z,56.00
2022-10-01T11:34:25.721Z,56.00
2022-10-01T11:35:25.700Z,48.00
2022-10-01T11:36:25.718Z,60.00
2022-10-01T11:37:25.683Z,48.00
2022-10-01T11:38:25.670Z,56.00
2022-10-01T11:39:25.658Z,60.00
2022-10-01T11:40:25.681Z,68.00
2022-10-01T11:41:25.641Z,64.00
2022-10-01T11:42:25.633Z,64.00
2022-10-01T11:43:25.625Z,68.00
2022-10-01T11:44:25.614Z,64.00
2022-10-01T11:45:25.598Z,64.00
2022-10-01T11:46:25.763Z,64.00
2022-10-01T11:47:25.573Z,72.00
2022-10-01T11:48:25.574Z,76.00
2022-10-01T11:49:25.554Z,64.00
2022-10-01T11:50:25.543Z,60.00
2022-10-01T11:51:25.524Z,68.00
2022-10-01T11:52:25.549Z,64.00
2022-10-01T11:53:25.506Z,64.00
2022-10-01T11:54:25.495Z,56.00
2022-10-01T11:55:25.489Z,52.00
2022-10-01T11:56:25.503Z,48.00
2022-10-01T11:57:25.594Z,44.00
2022-10-01T11:58:25.457Z,32.00
2022-10-01T11:59:25.445Z,32.00
2022-10-01T12:00:27.478Z,32.00
2022-10-01T12:01:25.877Z,40.00
2022-10-01T12:02:25.609Z,40.00
2022-10-01T12:03:25.388Z,36.00
2022-10-01T12:04:25.546Z,32.00
2022-10-01T12:05:25.414Z,40.00
2022-10-01T12:06:28.445Z,40.00
2022-10-01T12:07:26.348Z,32.00
2022-10-01T12:08:25.345Z,36.00
2022-10-01T12:09:25.346Z,32.00
2022-10-01T12:10:25.327Z,32.00
2022-10-01T12:11:25.383Z,32.00
2022-10-01T12:12:25.318Z,32.00
2022-10-01T12:13:25.304Z,28.00
2022-10-01T12:14:25.280Z,28.00
2022-10-01T12:15:25.267Z,24.00
2022-10-01T12:16:25.317Z,24.00
2022-10-01T12:17:25.290Z,24.00
2022-10-01T12:18:25.237Z,24.00
2022-10-01T12:19:25.230Z,24.00
2022-10-01T12:20:25.227Z,24.00
2022-10-01T12:21:25.191Z,20.00
2022-10-01T12:22:25.191Z,24.00
2022-10-01T12:23:25.201Z,20.00
2022-10-01T12:24:25.183Z,20.00
2022-10-01T12:25:25.184Z,20.00
2022-10-01T12:26:25.253Z,20.00
2022-10-01T12:27:25.133Z,20.00
2022-10-01T12:28:25.150Z,16.00
2022-10-01T12:29:25.234Z,16.00
2022-10-01T12:30:25.108Z,20.00
2022-10-01T12:31:25.138Z,20.00
2022-10-01T12:32:25.088Z,24.00
2022-10-01T12:33:25.063Z,28.00
2022-10-01T12:34:25.072Z,28.00
2022-10-01T12:35:25.083Z,28.00
2022-10-01T12:36:25.048Z,24.00
2022-10-01T12:37:25.074Z,24.00
2022-10-01T12:38:25.015Z,24.00
2022-10-01T12:39:25.052Z,20.00
2022-10-01T12:40:24.995Z,20.00
2022-10-01T12:41:24.988Z,16.00
2022-10-01T12:42:25.071Z,20.00
2022-10-01T12:43:24.967Z,24.00
2022-10-01T12:44:24.994Z,28.00
2022-10-01T12:45:24.944Z,20.00
2022-10-01T12:46:25.028Z,24.00
2022-10-01T12:47:24.958Z,24.00
2022-10-01T12:48:24.916Z,20.00
2022-10-01T12:49:24.896Z,24.00
2022-10-01T12:50:24.899Z,24.00
2022-10-01T12:51:24.898Z,24.00
2022-10-01T12:52:24.878Z,16.00
2022-10-01T12:53:24.899Z,20.00
2022-10-01T12:54:24.849Z,16.00
2022-10-01T12:55:24.833Z,16.00
2022-10-01T12:56:24.837Z,20.00
2022-10-01T12:57:24.809Z,20.00
2022-10-01T12:58:24.860Z,20.00
2022-10-01T12:59:24.800Z,20.00
2022-10-01T13:00:24.776Z,20.00
2022-10-01T13:01:24.802Z,20.00
2022-10-01T13:02:24.809Z,16.00